sensor_id;sensor_type;location;lat;lon;timestamp;temperature;humidity
2106;DHT22;1059;52.548;13.408;2023-06-04T00:02:04;13.90;1.00
2106;DHT22;1059;52.548;13.408;2023-06-04T00:04:31;13.90;1.00
2106;DHT22;1059;52.548;13.408;2023-06-04T00:06:57;13.90;1.00
2106;DHT22;1059;52.548;13.408;2023-06-04T00:09:26;13.90;1.00
2106;DHT22;1059;52.548;13.408;2023-06-04T00:11:53;13.90;1.00
2106;DHT22;1059;52.548;13.408;2023-06-04T00:14:20;13.90;1.00
2106;DHT22;1059;52.548;13.408;2023-06-04T00:16:46;13.80;1.00
2106;DHT22;1059;52.548;13.408;2023-06-04T00:19:13;13.80;1.00
2106;DHT22;1059;52.548;13.408;2023-06-04T00:21:40;13.80;1.00
2106;DHT22;1059;52.548;13.408;2023-06-04T00:24:07;13.70;1.00
2106;DHT22;1059;52.548;13.408;2023-06-04T00:26:35;13.70;1.00
2106;DHT22;1059;52.548;13.408;2023-06-04T00:29:02;13.70;1.00
2106;DHT22;1059;52.548;13.408;2023-06-04T00:31:29;13.60;1.00
2106;DHT22;1059;52.548;13.408;2023-06-04T00:33:55;13.60;1.00
2106;DHT22;1059;52.548;13.408;2023-06-04T00:36:22;13.50;1.00
2106;DHT22;1059;52.548;13.408;2023-06-04T00:38:49;13.50;1.00
2106;DHT22;1059;52.548;13.408;2023-06-04T00:41:16;13.40;1.00
2106;DHT22;1059;52.548;13.408;2023-06-04T00:43:44;13.40;1.00
2106;DHT22;1059;52.548;13.408;2023-06-04T00:46:21;13.40;1.00
2106;DHT22;1059;52.548;13.408;2023-06-04T00:48:48;13.30;1.00
2106;DHT22;1059;52.548;13.408;2023-06-04T00:51:16;13.30;1.00
2106;DHT22;1059;52.548;13.408;2023-06-04T00:53:43;13.20;1.00
2106;DHT22;1059;52.548;13.408;2023-06-04T00:56:10;13.20;1.00
2106;DHT22;1059;52.548;13.408;2023-06-04T00:58:37;13.10;1.00
2106;DHT22;1059;52.548;13.408;2023-06-04T01:01:10;13.10;1.00
2106;DHT22;1059;52.548;13.408;2023-06-04T01:03:41;13.00;1.00
2106;DHT22;1059;52.548;13.408;2023-06-04T01:06:14;13.00;1.00
2106;DHT22;1059;52.548;13.408;2023-06-04T01:08:48;13.00;1.00
2106;DHT22;1059;52.548;13.408;2023-06-04T01:11:16;12.90;1.00
2106;DHT22;1059;52.548;13.408;2023-06-04T01:13:43;13.00;1.00
2106;DHT22;1059;52.548;13.408;2023-06-04T01:16:12;12.90;1.00
2106;DHT22;1059;52.548;13.408;2023-06-04T01:18:41;12.90;1.00
2106;DHT22;1059;52.548;13.408;2023-06-04T01:21:10;12.90;1.00
2106;DHT22;1059;52.548;13.408;2023-06-04T01:23:47;12.80;1.00
2106;DHT22;1059;52.548;13.408;2023-06-04T01:26:25;12.80;1.00
2106;DHT22;1059;52.548;13.408;2023-06-04T01:28:53;12.80;1.00
2106;DHT22;1059;52.548;13.408;2023-06-04T01:31:23;12.70;1.00
2106;DHT22;1059;52.548;13.408;2023-06-04T01:33:51;12.70;1.00
2106;DHT22;1059;52.548;13.408;2023-06-04T01:36:18;12.70;1.00
2106;DHT22;1059;52.548;13.408;2023-06-04T01:38:45;12.60;1.00
2106;DHT22;1059;52.548;13.408;2023-06-04T01:41:12;12.60;1.00
2106;DHT22;1059;52.548;13.408;2023-06-04T01:43:39;12.60;1.00
2106;DHT22;1059;52.548;13.408;2023-06-04T01:46:06;12.50;1.00
2106;DHT22;1059;52.548;13.408;2023-06-04T01:48:34;12.50;1.00
2106;DHT22;1059;52.548;13.408;2023-06-04T01:51:02;12.50;1.00
2106;DHT22;1059;52.548;13.408;2023-06-04T01:53:29;12.50;1.00
2106;DHT22;1059;52.548;13.408;2023-06-04T01:55:56;12.50;1.00
2106;DHT22;1059;52.548;13.408;2023-06-04T01:58:24;12.50;1.00
2106;DHT22;1059;52.548;13.408;2023-06-04T02:00:52;12.50;1.00
2106;DHT22;1059;52.548;13.408;2023-06-04T02:03:20;12.50;1.00
2106;DHT22;1059;52.548;13.408;2023-06-04T02:05:48;12.50;1.00
2106;DHT22;1059;52.548;13.408;2023-06-04T02:08:16;12.40;1.00
2106;DHT22;1059;52.548;13.408;2023-06-04T02:10:45;12.40;1.00
2106;DHT22;1059;52.548;13.408;2023-06-04T02:13:12;12.40;1.00
2106;DHT22;1059;52.548;13.408;2023-06-04T02:15:40;12.40;1.00
2106;DHT22;1059;52.548;13.408;2023-06-04T02:18:15;12.30;1.00
2106;DHT22;1059;52.548;13.408;2023-06-04T02:20:43;12.30;1.00
2106;DHT22;1059;52.548;13.408;2023-06-04T02:23:12;12.30;1.00
2106;DHT22;1059;52.548;13.408;2023-06-04T02:25:39;12.20;1.00
2106;DHT22;1059;52.548;13.408;2023-06-04T02:28:06;12.20;1.00
2106;DHT22;1059;52.548;13.408;2023-06-04T02:30:33;12.20;1.00
2106;DHT22;1059;52.548;13.408;2023-06-04T02:33:00;12.20;1.00
2106;DHT22;1059;52.548;13.408;2023-06-04T02:35:27;12.10;1.00
2106;DHT22;1059;52.548;13.408;2023-06-04T02:37:54;12.10;1.00
2106;DHT22;1059;52.548;13.408;2023-06-04T02:40:24;12.10;1.00
2106;DHT22;1059;52.548;13.408;2023-06-04T02:42:52;12.00;1.00
2106;DHT22;1059;52.548;13.408;2023-06-04T02:45:19;12.00;1.00
2106;DHT22;1059;52.548;13.408;2023-06-04T02:47:46;12.00;1.00
2106;DHT22;1059;52.548;13.408;2023-06-04T02:50:14;11.90;1.00
2106;DHT22;1059;52.548;13.408;2023-06-04T02:52:41;11.90;1.00
2106;DHT22;1059;52.548;13.408;2023-06-04T02:55:09;11.90;1.00
2106;DHT22;1059;52.548;13.408;2023-06-04T02:57:40;11.90;1.00
2106;DHT22;1059;52.548;13.408;2023-06-04T03:00:08;11.80;1.00
2106;DHT22;1059;52.548;13.408;2023-06-04T03:02:39;11.80;1.00
2106;DHT22;1059;52.548;13.408;2023-06-04T03:05:09;11.80;1.00
2106;DHT22;1059;52.548;13.408;2023-06-04T03:07:38;11.80;1.00
2106;DHT22;1059;52.548;13.408;2023-06-04T03:10:07;11.80;1.00
2106;DHT22;1059;52.548;13.408;2023-06-04T03:12:34;11.70;1.00
2106;DHT22;1059;52.548;13.408;2023-06-04T03:15:03;11.70;1.00
2106;DHT22;1059;52.548;13.408;2023-06-04T03:17:30;11.70;1.00
2106;DHT22;1059;52.548;13.408;2023-06-04T03:19:57;11.80;1.00
2106;DHT22;1059;52.548;13.408;2023-06-04T03:22:24;11.70;1.00
2106;DHT22;1059;52.548;13.408;2023-06-04T03:24:51;11.70;1.00
2106;DHT22;1059;52.548;13.408;2023-06-04T03:27:18;11.70;1.00
2106;DHT22;1059;52.548;13.408;2023-06-04T03:29:46;11.70;1.00
2106;DHT22;1059;52.548;13.408;2023-06-04T03:32:15;11.70;1.00
2106;DHT22;1059;52.548;13.408;2023-06-04T03:34:42;11.70;1.00
2106;DHT22;1059;52.548;13.408;2023-06-04T03:37:09;11.70;1.00
2106;DHT22;1059;52.548;13.408;2023-06-04T03:39:36;11.70;1.00
2106;DHT22;1059;52.548;13.408;2023-06-04T03:42:03;11.70;1.00
2106;DHT22;1059;52.548;13.408;2023-06-04T03:44:31;11.70;1.00
2106;DHT22;1059;52.548;13.408;2023-06-04T03:46:57;11.60;1.00
2106;DHT22;1059;52.548;13.408;2023-06-04T03:49:26;11.70;1.00
2106;DHT22;1059;52.548;13.408;2023-06-04T03:51:53;11.70;1.00
2106;DHT22;1059;52.548;13.408;2023-06-04T03:54:21;11.70;1.00
2106;DHT22;1059;52.548;13.408;2023-06-04T03:56:48;11.70;1.00
2106;DHT22;1059;52.548;13.408;2023-06-04T03:59:15;11.70;1.00
2106;DHT22;1059;52.548;13.408;2023-06-04T04:01:42;11.70;1.00
2106;DHT22;1059;52.548;13.408;2023-06-04T04:04:10;11.70;1.00
2106;DHT22;1059;52.548;13.408;2023-06-04T04:06:38;11.70;1.00
2106;DHT22;1059;52.548;13.408;2023-06-04T04:09:05;11.70;1.00
2106;DHT22;1059;52.548;13.408;2023-06-04T04:11:32;11.70;1.00
2106;DHT22;1059;52.548;13.408;2023-06-04T04:13:59;11.70;1.00
2106;DHT22;1059;52.548;13.408;2023-06-04T04:16:26;11.70;1.00
2106;DHT22;1059;52.548;13.408;2023-06-04T04:18:54;11.80;1.00
2106;DHT22;1059;52.548;13.408;2023-06-04T04:21:21;11.80;1.00
2106;DHT22;1059;52.548;13.408;2023-06-04T04:23:50;11.80;1.00
2106;DHT22;1059;52.548;13.408;2023-06-04T04:26:17;11.80;1.00
2106;DHT22;1059;52.548;13.408;2023-06-04T04:28:44;11.90;1.00
2106;DHT22;1059;52.548;13.408;2023-06-04T04:31:11;11.90;1.00
2106;DHT22;1059;52.548;13.408;2023-06-04T04:33:38;11.90;1.00
2106;DHT22;1059;52.548;13.408;2023-06-04T04:36:06;11.90;1.00
2106;DHT22;1059;52.548;13.408;2023-06-04T04:38:38;11.90;1.00
2106;DHT22;1059;52.548;13.408;2023-06-04T04:41:07;12.00;1.00
2106;DHT22;1059;52.548;13.408;2023-06-04T04:43:35;12.00;1.00
2106;DHT22;1059;52.548;13.408;2023-06-04T04:46:03;12.10;1.00
2106;DHT22;1059;52.548;13.408;2023-06-04T04:48:30;12.10;1.00
2106;DHT22;1059;52.548;13.408;2023-06-04T04:50:56;12.10;1.00
2106;DHT22;1059;52.548;13.408;2023-06-04T04:53:23;12.20;1.00
2106;DHT22;1059;52.548;13.408;2023-06-04T04:55:50;12.20;1.00
2106;DHT22;1059;52.548;13.408;2023-06-04T04:58:18;12.20;1.00
2106;DHT22;1059;52.548;13.408;2023-06-04T05:00:45;12.30;1.00
2106;DHT22;1059;52.548;13.408;2023-06-04T05:03:13;12.30;1.00
2106;DHT22;1059;52.548;13.408;2023-06-04T05:05:40;12.40;1.00
2106;DHT22;1059;52.548;13.408;2023-06-04T05:08:07;12.40;1.00
2106;DHT22;1059;52.548;13.408;2023-06-04T05:10:34;12.40;1.00
2106;DHT22;1059;52.548;13.408;2023-06-04T05:13:02;12.50;1.00
2106;DHT22;1059;52.548;13.408;2023-06-04T05:15:32;12.50;1.00
2106;DHT22;1059;52.548;13.408;2023-06-04T05:17:59;12.50;1.00
2106;DHT22;1059;52.548;13.408;2023-06-04T05:20:29;12.60;1.00
2106;DHT22;1059;52.548;13.408;2023-06-04T05:22:56;12.60;1.00
2106;DHT22;1059;52.548;13.408;2023-06-04T05:25:23;12.70;1.00
2106;DHT22;1059;52.548;13.408;2023-06-04T05:27:51;12.80;1.00
2106;DHT22;1059;52.548;13.408;2023-06-04T05:30:17;12.80;1.00
2106;DHT22;1059;52.548;13.408;2023-06-04T05:32:46;12.90;1.00
2106;DHT22;1059;52.548;13.408;2023-06-04T05:35:13;12.90;1.00
2106;DHT22;1059;52.548;13.408;2023-06-04T05:37:40;13.00;1.00
2106;DHT22;1059;52.548;13.408;2023-06-04T05:40:08;13.10;1.00
2106;DHT22;1059;52.548;13.408;2023-06-04T05:42:36;13.10;1.00
2106;DHT22;1059;52.548;13.408;2023-06-04T05:45:04;13.20;1.00
2106;DHT22;1059;52.548;13.408;2023-06-04T05:47:33;13.30;1.00
2106;DHT22;1059;52.548;13.408;2023-06-04T05:50:02;13.30;1.00
2106;DHT22;1059;52.548;13.408;2023-06-04T05:52:29;13.40;1.00
2106;DHT22;1059;52.548;13.408;2023-06-04T05:54:56;13.50;1.00
2106;DHT22;1059;52.548;13.408;2023-06-04T05:57:23;13.60;1.00
2106;DHT22;1059;52.548;13.408;2023-06-04T05:59:50;13.70;1.00
2106;DHT22;1059;52.548;13.408;2023-06-04T06:02:17;13.90;1.00
2106;DHT22;1059;52.548;13.408;2023-06-04T06:04:44;13.90;1.00
2106;DHT22;1059;52.548;13.408;2023-06-04T06:07:12;14.00;1.00
2106;DHT22;1059;52.548;13.408;2023-06-04T06:09:39;14.10;1.00
2106;DHT22;1059;52.548;13.408;2023-06-04T06:12:06;14.20;1.00
2106;DHT22;1059;52.548;13.408;2023-06-04T06:14:33;14.30;1.00
2106;DHT22;1059;52.548;13.408;2023-06-04T06:17:01;14.40;1.00
2106;DHT22;1059;52.548;13.408;2023-06-04T06:19:28;14.50;1.00
2106;DHT22;1059;52.548;13.408;2023-06-04T06:21:55;14.60;1.00
2106;DHT22;1059;52.548;13.408;2023-06-04T06:24:25;14.70;1.00
2106;DHT22;1059;52.548;13.408;2023-06-04T06:26:52;14.80;1.00
2106;DHT22;1059;52.548;13.408;2023-06-04T06:29:19;14.90;1.00
2106;DHT22;1059;52.548;13.408;2023-06-04T06:31:46;15.00;1.00
2106;DHT22;1059;52.548;13.408;2023-06-04T06:34:13;15.10;1.00
2106;DHT22;1059;52.548;13.408;2023-06-04T06:36:40;15.20;1.00
2106;DHT22;1059;52.548;13.408;2023-06-04T06:39:07;15.30;1.00
2106;DHT22;1059;52.548;13.408;2023-06-04T06:41:35;15.30;1.00
2106;DHT22;1059;52.548;13.408;2023-06-04T06:44:04;15.40;1.00
2106;DHT22;1059;52.548;13.408;2023-06-04T06:46:30;15.50;1.00
2106;DHT22;1059;52.548;13.408;2023-06-04T06:48:57;15.80;1.00
2106;DHT22;1059;52.548;13.408;2023-06-04T06:51:24;16.00;1.00
2106;DHT22;1059;52.548;13.408;2023-06-04T06:53:51;16.00;1.00
2106;DHT22;1059;52.548;13.408;2023-06-04T06:56:18;16.00;1.00
2106;DHT22;1059;52.548;13.408;2023-06-04T06:58:46;16.10;1.00
2106;DHT22;1059;52.548;13.408;2023-06-04T07:01:13;16.30;1.00
2106;DHT22;1059;52.548;13.408;2023-06-04T07:03:40;16.50;1.00
2106;DHT22;1059;52.548;13.408;2023-06-04T07:06:07;16.70;1.00
2106;DHT22;1059;52.548;13.408;2023-06-04T07:08:36;16.80;1.00
2106;DHT22;1059;52.548;13.408;2023-06-04T07:11:03;16.80;1.00
2106;DHT22;1059;52.548;13.408;2023-06-04T07:13:30;16.90;1.00
2106;DHT22;1059;52.548;13.408;2023-06-04T07:15:59;17.00;1.00
2106;DHT22;1059;52.548;13.408;2023-06-04T07:18:26;17.00;1.00
2106;DHT22;1059;52.548;13.408;2023-06-04T07:20:53;17.10;1.00
2106;DHT22;1059;52.548;13.408;2023-06-04T07:23:19;17.20;1.00
2106;DHT22;1059;52.548;13.408;2023-06-04T07:25:46;17.20;1.00
2106;DHT22;1059;52.548;13.408;2023-06-04T07:28:13;17.20;1.00
2106;DHT22;1059;52.548;13.408;2023-06-04T07:30:40;17.30;1.00
2106;DHT22;1059;52.548;13.408;2023-06-04T07:33:09;17.30;1.00
2106;DHT22;1059;52.548;13.408;2023-06-04T07:35:35;17.30;1.00
2106;DHT22;1059;52.548;13.408;2023-06-04T07:38:02;17.40;1.00
2106;DHT22;1059;52.548;13.408;2023-06-04T07:40:29;17.40;1.00
2106;DHT22;1059;52.548;13.408;2023-06-04T07:42:56;17.50;1.00
2106;DHT22;1059;52.548;13.408;2023-06-04T07:45:23;17.50;1.00
2106;DHT22;1059;52.548;13.408;2023-06-04T07:47:50;17.60;1.00
2106;DHT22;1059;52.548;13.408;2023-06-04T07:50:18;17.70;1.00
2106;DHT22;1059;52.548;13.408;2023-06-04T07:52:45;17.70;1.00
2106;DHT22;1059;52.548;13.408;2023-06-04T07:55:12;17.80;1.00
2106;DHT22;1059;52.548;13.408;2023-06-04T07:57:38;17.80;1.00
2106;DHT22;1059;52.548;13.408;2023-06-04T08:00:07;17.90;1.00
2106;DHT22;1059;52.548;13.408;2023-06-04T08:02:34;17.90;1.00
2106;DHT22;1059;52.548;13.408;2023-06-04T08:05:02;18.00;1.00
2106;DHT22;1059;52.548;13.408;2023-06-04T08:07:30;18.10;1.00
2106;DHT22;1059;52.548;13.408;2023-06-04T08:09:57;18.10;1.00
2106;DHT22;1059;52.548;13.408;2023-06-04T08:12:24;18.20;1.00
2106;DHT22;1059;52.548;13.408;2023-06-04T08:14:51;18.20;1.00
2106;DHT22;1059;52.548;13.408;2023-06-04T08:17:22;18.30;1.00
2106;DHT22;1059;52.548;13.408;2023-06-04T08:19:49;18.30;1.00
2106;DHT22;1059;52.548;13.408;2023-06-04T08:22:16;18.30;1.00
2106;DHT22;1059;52.548;13.408;2023-06-04T08:24:44;18.40;1.00
2106;DHT22;1059;52.548;13.408;2023-06-04T08:27:11;18.50;1.00
2106;DHT22;1059;52.548;13.408;2023-06-04T08:29:38;18.50;1.00
2106;DHT22;1059;52.548;13.408;2023-06-04T08:32:06;18.60;1.00
2106;DHT22;1059;52.548;13.408;2023-06-04T08:34:34;18.60;1.00
2106;DHT22;1059;52.548;13.408;2023-06-04T08:37:00;18.60;1.00
2106;DHT22;1059;52.548;13.408;2023-06-04T08:39:27;18.60;1.00
2106;DHT22;1059;52.548;13.408;2023-06-04T08:41:59;18.70;1.00
2106;DHT22;1059;52.548;13.408;2023-06-04T08:44:27;18.70;1.00
2106;DHT22;1059;52.548;13.408;2023-06-04T08:47:02;18.70;1.00
2106;DHT22;1059;52.548;13.408;2023-06-04T08:49:30;18.80;1.00
2106;DHT22;1059;52.548;13.408;2023-06-04T08:51:58;18.90;1.00
2106;DHT22;1059;52.548;13.408;2023-06-04T08:54:26;19.20;1.00
2106;DHT22;1059;52.548;13.408;2023-06-04T08:56:57;19.20;1.00
2106;DHT22;1059;52.548;13.408;2023-06-04T08:59:24;19.30;1.00
2106;DHT22;1059;52.548;13.408;2023-06-04T09:01:53;19.20;1.00
2106;DHT22;1059;52.548;13.408;2023-06-04T09:04:20;19.20;1.00
2106;DHT22;1059;52.548;13.408;2023-06-04T09:06:48;19.30;1.00
2106;DHT22;1059;52.548;13.408;2023-06-04T09:09:15;19.40;1.00
2106;DHT22;1059;52.548;13.408;2023-06-04T09:11:49;19.50;1.00
2106;DHT22;1059;52.548;13.408;2023-06-04T09:14:17;19.50;1.00
2106;DHT22;1059;52.548;13.408;2023-06-04T09:16:46;19.50;1.00
2106;DHT22;1059;52.548;13.408;2023-06-04T09:19:13;19.50;1.00
2106;DHT22;1059;52.548;13.408;2023-06-04T09:21:48;19.50;1.00
2106;DHT22;1059;52.548;13.408;2023-06-04T09:24:15;19.60;1.00
2106;DHT22;1059;52.548;13.408;2023-06-04T09:26:41;19.70;1.00
2106;DHT22;1059;52.548;13.408;2023-06-04T09:29:09;19.70;1.00
2106;DHT22;1059;52.548;13.408;2023-06-04T09:31:37;19.60;1.00
2106;DHT22;1059;52.548;13.408;2023-06-04T09:34:05;19.60;1.00
2106;DHT22;1059;52.548;13.408;2023-06-04T09:36:33;19.60;1.00
2106;DHT22;1059;52.548;13.408;2023-06-04T09:39:00;19.60;1.00
2106;DHT22;1059;52.548;13.408;2023-06-04T09:41:31;19.60;1.00
2106;DHT22;1059;52.548;13.408;2023-06-04T09:44:01;19.60;1.00
2106;DHT22;1059;52.548;13.408;2023-06-04T09:46:29;19.50;1.00
2106;DHT22;1059;52.548;13.408;2023-06-04T09:49:02;19.50;1.00
2106;DHT22;1059;52.548;13.408;2023-06-04T09:51:30;19.50;1.00
2106;DHT22;1059;52.548;13.408;2023-06-04T09:53:58;19.50;1.00
2106;DHT22;1059;52.548;13.408;2023-06-04T09:56:26;19.50;1.00
2106;DHT22;1059;52.548;13.408;2023-06-04T09:58:55;19.50;1.00
2106;DHT22;1059;52.548;13.408;2023-06-04T10:01:23;19.60;1.00
2106;DHT22;1059;52.548;13.408;2023-06-04T10:03:53;19.60;1.00
2106;DHT22;1059;52.548;13.408;2023-06-04T10:06:23;19.70;1.00
2106;DHT22;1059;52.548;13.408;2023-06-04T10:08:52;19.70;1.00
2106;DHT22;1059;52.548;13.408;2023-06-04T10:11:25;19.70;1.00
2106;DHT22;1059;52.548;13.408;2023-06-04T10:13:54;19.80;1.00
2106;DHT22;1059;52.548;13.408;2023-06-04T10:16:23;19.80;1.00
2106;DHT22;1059;52.548;13.408;2023-06-04T10:18:52;19.90;1.00
2106;DHT22;1059;52.548;13.408;2023-06-04T10:21:22;19.90;1.00
2106;DHT22;1059;52.548;13.408;2023-06-04T10:23:50;20.00;1.00
2106;DHT22;1059;52.548;13.408;2023-06-04T10:26:17;20.10;1.00
2106;DHT22;1059;52.548;13.408;2023-06-04T10:28:44;20.20;1.00
2106;DHT22;1059;52.548;13.408;2023-06-04T10:31:11;20.30;1.00
2106;DHT22;1059;52.548;13.408;2023-06-04T10:33:39;20.30;1.00
2106;DHT22;1059;52.548;13.408;2023-06-04T10:36:16;20.40;1.00
2106;DHT22;1059;52.548;13.408;2023-06-04T10:38:49;20.40;1.00
2106;DHT22;1059;52.548;13.408;2023-06-04T10:41:18;20.50;1.00
2106;DHT22;1059;52.548;13.408;2023-06-04T10:43:47;20.50;1.00
2106;DHT22;1059;52.548;13.408;2023-06-04T10:46:16;20.60;1.00
2106;DHT22;1059;52.548;13.408;2023-06-04T10:48:50;20.40;1.00
2106;DHT22;1059;52.548;13.408;2023-06-04T10:51:29;20.40;1.00
2106;DHT22;1059;52.548;13.408;2023-06-04T10:53:58;20.50;1.00
2106;DHT22;1059;52.548;13.408;2023-06-04T10:56:26;20.50;1.00
2106;DHT22;1059;52.548;13.408;2023-06-04T10:58:53;20.50;1.00
2106;DHT22;1059;52.548;13.408;2023-06-04T11:01:24;20.70;1.00
2106;DHT22;1059;52.548;13.408;2023-06-04T11:03:51;20.80;1.00
2106;DHT22;1059;52.548;13.408;2023-06-04T11:06:18;21.00;1.00
2106;DHT22;1059;52.548;13.408;2023-06-04T11:08:46;21.10;1.00
2106;DHT22;1059;52.548;13.408;2023-06-04T11:11:15;21.20;1.00
2106;DHT22;1059;52.548;13.408;2023-06-04T11:13:43;21.40;1.00
2106;DHT22;1059;52.548;13.408;2023-06-04T11:16:15;21.50;1.00
2106;DHT22;1059;52.548;13.408;2023-06-04T11:18:42;21.80;1.00
2106;DHT22;1059;52.548;13.408;2023-06-04T11:21:09;22.50;1.00
2106;DHT22;1059;52.548;13.408;2023-06-04T11:23:40;23.30;1.00
2106;DHT22;1059;52.548;13.408;2023-06-04T11:26:07;24.30;1.00
2106;DHT22;1059;52.548;13.408;2023-06-04T11:28:35;25.40;1.00
2106;DHT22;1059;52.548;13.408;2023-06-04T11:31:02;26.40;1.00
2106;DHT22;1059;52.548;13.408;2023-06-04T11:33:41;27.20;1.00
2106;DHT22;1059;52.548;13.408;2023-06-04T11:36:08;28.10;1.00
2106;DHT22;1059;52.548;13.408;2023-06-04T11:38:35;28.70;1.00
2106;DHT22;1059;52.548;13.408;2023-06-04T11:41:02;29.20;1.00
2106;DHT22;1059;52.548;13.408;2023-06-04T11:43:32;29.60;1.00
2106;DHT22;1059;52.548;13.408;2023-06-04T11:46:05;30.20;1.00
2106;DHT22;1059;52.548;13.408;2023-06-04T11:48:32;30.70;1.00
2106;DHT22;1059;52.548;13.408;2023-06-04T11:51:05;31.00;1.00
2106;DHT22;1059;52.548;13.408;2023-06-04T11:53:33;31.10;1.00
2106;DHT22;1059;52.548;13.408;2023-06-04T11:56:01;31.30;1.00
2106;DHT22;1059;52.548;13.408;2023-06-04T11:58:28;31.50;1.00
2106;DHT22;1059;52.548;13.408;2023-06-04T12:00:55;31.60;1.00
2106;DHT22;1059;52.548;13.408;2023-06-04T12:03:34;31.70;1.00
2106;DHT22;1059;52.548;13.408;2023-06-04T12:06:10;31.70;1.00
2106;DHT22;1059;52.548;13.408;2023-06-04T12:08:45;31.70;1.00
2106;DHT22;1059;52.548;13.408;2023-06-04T12:11:24;31.60;1.00
2106;DHT22;1059;52.548;13.408;2023-06-04T12:13:52;31.80;1.00
2106;DHT22;1059;52.548;13.408;2023-06-04T12:16:19;32.00;1.00
2106;DHT22;1059;52.548;13.408;2023-06-04T12:18:47;32.10;1.00
2106;DHT22;1059;52.548;13.408;2023-06-04T12:21:21;32.00;1.00
2106;DHT22;1059;52.548;13.408;2023-06-04T12:23:53;31.80;1.00
2106;DHT22;1059;52.548;13.408;2023-06-04T12:26:21;32.00;1.00
2106;DHT22;1059;52.548;13.408;2023-06-04T12:29:07;32.00;1.00
2106;DHT22;1059;52.548;13.408;2023-06-04T12:31:35;32.00;1.00
2106;DHT22;1059;52.548;13.408;2023-06-04T12:34:04;31.80;1.00
2106;DHT22;1059;52.548;13.408;2023-06-04T12:36:31;32.00;1.00
2106;DHT22;1059;52.548;13.408;2023-06-04T12:39:00;32.20;1.00
2106;DHT22;1059;52.548;13.408;2023-06-04T12:41:27;32.40;1.00
2106;DHT22;1059;52.548;13.408;2023-06-04T12:43:55;32.60;1.00
2106;DHT22;1059;52.548;13.408;2023-06-04T12:46:22;32.80;1.00
2106;DHT22;1059;52.548;13.408;2023-06-04T12:48:50;32.80;1.00
2106;DHT22;1059;52.548;13.408;2023-06-04T12:51:18;32.60;1.00
2106;DHT22;1059;52.548;13.408;2023-06-04T12:53:46;32.00;1.00
2106;DHT22;1059;52.548;13.408;2023-06-04T12:56:13;31.50;1.00
2106;DHT22;1059;52.548;13.408;2023-06-04T12:58:40;30.90;1.00
2106;DHT22;1059;52.548;13.408;2023-06-04T13:01:07;31.10;1.00
2106;DHT22;1059;52.548;13.408;2023-06-04T13:03:36;31.30;1.00
2106;DHT22;1059;52.548;13.408;2023-06-04T13:06:03;31.40;1.00
2106;DHT22;1059;52.548;13.408;2023-06-04T13:08:32;31.60;1.00
2106;DHT22;1059;52.548;13.408;2023-06-04T13:10:59;31.80;1.00
2106;DHT22;1059;52.548;13.408;2023-06-04T13:13:27;32.10;1.00
2106;DHT22;1059;52.548;13.408;2023-06-04T13:15:55;32.40;1.00
2106;DHT22;1059;52.548;13.408;2023-06-04T13:18:21;32.70;1.00
2106;DHT22;1059;52.548;13.408;2023-06-04T13:20:48;32.50;1.00
2106;DHT22;1059;52.548;13.408;2023-06-04T13:23:15;31.80;1.00
2106;DHT22;1059;52.548;13.408;2023-06-04T13:25:44;31.80;1.00
2106;DHT22;1059;52.548;13.408;2023-06-04T13:28:11;32.00;1.00
2106;DHT22;1059;52.548;13.408;2023-06-04T13:30:38;32.10;1.00
2106;DHT22;1059;52.548;13.408;2023-06-04T13:33:05;32.30;1.00
2106;DHT22;1059;52.548;13.408;2023-06-04T13:35:32;32.60;1.00
2106;DHT22;1059;52.548;13.408;2023-06-04T13:37:59;32.60;1.00
2106;DHT22;1059;52.548;13.408;2023-06-04T13:40:26;32.80;1.00
2106;DHT22;1059;52.548;13.408;2023-06-04T13:42:54;32.90;1.00
2106;DHT22;1059;52.548;13.408;2023-06-04T13:45:21;33.00;1.00
2106;DHT22;1059;52.548;13.408;2023-06-04T13:47:48;32.90;1.00
2106;DHT22;1059;52.548;13.408;2023-06-04T13:50:15;32.60;1.00
2106;DHT22;1059;52.548;13.408;2023-06-04T13:52:42;32.50;1.00
2106;DHT22;1059;52.548;13.408;2023-06-04T13:55:09;32.60;1.00
2106;DHT22;1059;52.548;13.408;2023-06-04T13:57:36;32.10;1.00
2106;DHT22;1059;52.548;13.408;2023-06-04T14:00:05;31.60;1.00
2106;DHT22;1059;52.548;13.408;2023-06-04T14:02:33;31.30;1.00
2106;DHT22;1059;52.548;13.408;2023-06-04T14:05:00;31.10;1.00
2106;DHT22;1059;52.548;13.408;2023-06-04T14:07:26;31.00;1.00
2106;DHT22;1059;52.548;13.408;2023-06-04T14:09:54;31.30;1.00
2106;DHT22;1059;52.548;13.408;2023-06-04T14:12:21;31.60;1.00
2106;DHT22;1059;52.548;13.408;2023-06-04T14:14:48;32.10;1.00
2106;DHT22;1059;52.548;13.408;2023-06-04T14:17:16;32.30;1.00
2106;DHT22;1059;52.548;13.408;2023-06-04T14:19:44;32.40;1.00
2106;DHT22;1059;52.548;13.408;2023-06-04T14:22:11;32.80;1.00
2106;DHT22;1059;52.548;13.408;2023-06-04T14:24:39;32.90;1.00
2106;DHT22;1059;52.548;13.408;2023-06-04T14:27:06;32.90;1.00
2106;DHT22;1059;52.548;13.408;2023-06-04T14:29:35;33.10;1.00
2106;DHT22;1059;52.548;13.408;2023-06-04T14:32:01;33.20;1.00
2106;DHT22;1059;52.548;13.408;2023-06-04T14:34:30;33.20;1.00
2106;DHT22;1059;52.548;13.408;2023-06-04T14:36:58;33.20;1.00
2106;DHT22;1059;52.548;13.408;2023-06-04T14:39:25;33.10;1.00
2106;DHT22;1059;52.548;13.408;2023-06-04T14:41:52;32.90;1.00
2106;DHT22;1059;52.548;13.408;2023-06-04T14:44:19;32.80;1.00
2106;DHT22;1059;52.548;13.408;2023-06-04T14:46:48;32.60;1.00
2106;DHT22;1059;52.548;13.408;2023-06-04T14:49:15;32.50;1.00
2106;DHT22;1059;52.548;13.408;2023-06-04T14:51:43;32.20;1.00
2106;DHT22;1059;52.548;13.408;2023-06-04T14:54:10;31.40;1.00
2106;DHT22;1059;52.548;13.408;2023-06-04T14:56:37;31.30;1.00
2106;DHT22;1059;52.548;13.408;2023-06-04T14:59:03;31.30;1.00
2106;DHT22;1059;52.548;13.408;2023-06-04T15:01:34;31.20;1.00
2106;DHT22;1059;52.548;13.408;2023-06-04T15:04:02;31.10;1.00
2106;DHT22;1059;52.548;13.408;2023-06-04T15:06:28;31.00;1.00
2106;DHT22;1059;52.548;13.408;2023-06-04T15:08:57;30.90;1.00
2106;DHT22;1059;52.548;13.408;2023-06-04T15:11:24;30.80;1.00
2106;DHT22;1059;52.548;13.408;2023-06-04T15:13:51;30.50;1.00
2106;DHT22;1059;52.548;13.408;2023-06-04T15:16:18;30.30;1.00
2106;DHT22;1059;52.548;13.408;2023-06-04T15:18:46;29.90;1.00
2106;DHT22;1059;52.548;13.408;2023-06-04T15:21:12;29.40;1.00
2106;DHT22;1059;52.548;13.408;2023-06-04T15:23:40;28.90;1.00
2106;DHT22;1059;52.548;13.408;2023-06-04T15:26:11;28.40;1.00
2106;DHT22;1059;52.548;13.408;2023-06-04T15:28:37;27.90;1.00
2106;DHT22;1059;52.548;13.408;2023-06-04T15:31:04;27.50;1.00
2106;DHT22;1059;52.548;13.408;2023-06-04T15:33:31;27.20;1.00
2106;DHT22;1059;52.548;13.408;2023-06-04T15:35:58;26.90;1.00
2106;DHT22;1059;52.548;13.408;2023-06-04T15:38:25;26.60;1.00
2106;DHT22;1059;52.548;13.408;2023-06-04T15:40:52;26.40;1.00
2106;DHT22;1059;52.548;13.408;2023-06-04T15:43:20;26.20;1.00
2106;DHT22;1059;52.548;13.408;2023-06-04T15:45:47;26.10;1.00
2106;DHT22;1059;52.548;13.408;2023-06-04T15:48:14;26.00;1.00
2106;DHT22;1059;52.548;13.408;2023-06-04T15:50:40;26.00;1.00
2106;DHT22;1059;52.548;13.408;2023-06-04T15:53:07;25.90;1.00
2106;DHT22;1059;52.548;13.408;2023-06-04T15:55:34;25.90;1.00
2106;DHT22;1059;52.548;13.408;2023-06-04T15:58:01;25.80;1.00
2106;DHT22;1059;52.548;13.408;2023-06-04T16:00:29;25.80;1.00
2106;DHT22;1059;52.548;13.408;2023-06-04T16:02:56;25.80;1.00
2106;DHT22;1059;52.548;13.408;2023-06-04T16:05:23;25.90;1.00
2106;DHT22;1059;52.548;13.408;2023-06-04T16:07:50;25.90;1.00